createdAt,value
2023-03-06T00:00:31.761Z,35.57
2023-03-06T00:03:00.611Z,36.13
2023-03-06T00:05:29.130Z,33.87
2023-03-06T00:07:57.530Z,38.17
2023-03-06T00:10:27.360Z,38.73
2023-03-06T00:12:56.430Z,38.37
2023-03-06T00:15:25.338Z,36.20
2023-03-06T00:17:55.379Z,35.07
2023-03-06T00:20:23.902Z,31.40
2023-03-06T00:22:52.814Z,34.73
2023-03-06T00:25:22.508Z,32.17
2023-03-06T00:27:52.087Z,35.63
2023-03-06T00:30:22.117Z,37.13
2023-03-06T00:32:50.832Z,36.23
2023-03-06T00:35:20.658Z,33.70
2023-03-06T00:37:49.096Z,40.00
2023-03-06T00:40:18.576Z,39.50
2023-03-06T00:42:47.132Z,40.00
2023-03-06T00:45:15.607Z,40.73
2023-03-06T00:47:44.141Z,42.53
2023-03-06T00:50:13.053Z,44.43
2023-03-06T00:52:43.060Z,42.07
2023-03-06T00:55:11.793Z,47.20
2023-03-06T00:57:40.190Z,48.23
2023-03-06T01:00:09.517Z,47.30
2023-03-06T01:02:37.979Z,48.77
2023-03-06T01:05:06.848Z,41.90
2023-03-06T01:07:36.955Z,45.47
2023-03-06T01:10:07.934Z,45.57
2023-03-06T01:12:36.603Z,43.43
2023-03-06T01:15:05.422Z,39.97
2023-03-06T01:17:34.231Z,45.90
2023-03-06T01:20:02.646Z,41.63
2023-03-06T01:22:31.040Z,42.23
2023-03-06T01:24:59.495Z,41.20
2023-03-06T01:27:30.305Z,42.77
2023-03-06T01:29:58.766Z,45.13
2023-03-06T01:32:27.299Z,41.10
2023-03-06T01:34:55.936Z,43.70
2023-03-06T01:37:24.338Z,42.70
2023-03-06T01:39:52.733Z,45.03
2023-03-06T01:42:21.144Z,42.40
2023-03-06T01:45:05.198Z,42.90
2023-03-06T01:47:33.643Z,42.30
2023-03-06T01:50:03.850Z,43.37
2023-03-06T01:52:33.466Z,45.73
2023-03-06T01:55:04.694Z,43.40
2023-03-06T01:57:34.654Z,46.40
2023-03-06T02:00:06.922Z,42.67
2023-03-06T02:02:35.542Z,44.73
2023-03-06T02:05:05.277Z,48.13
2023-03-06T02:07:33.892Z,43.47
2023-03-06T02:10:02.349Z,42.17
2023-03-06T02:12:30.782Z,44.90
2023-03-06T02:14:59.205Z,43.00
2023-03-06T02:17:29.582Z,42.37
2023-03-06T02:20:01.834Z,47.63
2023-03-06T02:22:35.147Z,42.90
2023-03-06T02:25:06.383Z,39.10
2023-03-06T02:27:36.444Z,41.60
2023-03-06T02:30:07.372Z,46.30
2023-03-06T02:32:35.803Z,43.30
2023-03-06T02:35:04.635Z,42.97
2023-03-06T02:37:33.049Z,41.77
2023-03-06T02:40:08.224Z,40.97
2023-03-06T02:42:38.234Z,39.40
2023-03-06T02:45:09.423Z,43.00
2023-03-06T02:47:37.780Z,42.57
2023-03-06T02:50:06.466Z,42.50
2023-03-06T02:52:34.882Z,42.13
2023-03-06T02:55:03.268Z,45.30
2023-03-06T02:57:31.675Z,42.20
2023-03-06T03:00:01.478Z,45.23
2023-03-06T03:02:29.891Z,40.90
2023-03-06T03:04:58.298Z,38.10
2023-03-06T03:07:26.750Z,43.53
2023-03-06T03:09:55.149Z,38.73
2023-03-06T03:12:23.534Z,45.10
2023-03-06T03:14:51.996Z,40.23
2023-03-06T03:17:21.759Z,40.47
2023-03-06T03:19:50.176Z,40.07
2023-03-06T03:22:18.895Z,39.00
2023-03-06T03:24:47.574Z,40.30
2023-03-06T03:27:16.471Z,41.33
2023-03-06T03:29:45.332Z,40.33
2023-03-06T03:32:13.784Z,39.57
2023-03-06T03:34:43.612Z,39.53
2023-03-06T03:37:12.040Z,37.40
2023-03-06T03:39:40.480Z,36.67
2023-03-06T03:42:09.037Z,36.07
2023-03-06T03:44:37.533Z,38.50
2023-03-06T03:47:06.136Z,35.53
2023-03-06T03:49:34.540Z,33.27
2023-03-06T03:52:04.348Z,34.10
2023-03-06T03:54:32.811Z,33.10
2023-03-06T03:57:01.216Z,34.40
2023-03-06T03:59:29.661Z,32.83
2023-03-06T04:01:58.294Z,35.77
2023-03-06T04:04:26.828Z,31.93
2023-03-06T04:06:55.274Z,34.57
2023-03-06T04:09:25.222Z,31.67
2023-03-06T04:11:53.679Z,32.73
2023-03-06T04:14:22.077Z,32.40
2023-03-06T04:16:50.500Z,32.90
2023-03-06T04:19:18.900Z,31.37
2023-03-06T04:21:47.320Z,31.77
2023-03-06T04:24:15.695Z,30.93
2023-03-06T04:26:45.554Z,33.03
2023-03-06T04:29:14.054Z,32.17
2023-03-06T04:31:42.542Z,30.83
2023-03-06T04:34:10.956Z,30.87
2023-03-06T04:36:39.665Z,30.53
2023-03-06T04:39:08.134Z,31.47
2023-03-06T04:41:36.668Z,33.03
2023-03-06T04:44:06.637Z,33.30
2023-03-06T04:46:35.155Z,36.90
2023-03-06T04:49:03.850Z,29.60
2023-03-06T04:51:32.255Z,34.20
2023-03-06T04:54:00.674Z,31.37
2023-03-06T04:56:29.840Z,35.50
2023-03-06T04:58:58.266Z,33.10
2023-03-06T05:01:28.171Z,33.17
2023-03-06T05:03:56.564Z,30.40
2023-03-06T05:06:24.994Z,36.10
2023-03-06T05:08:53.432Z,33.27
2023-03-06T05:11:21.824Z,31.07
2023-03-06T05:13:50.525Z,35.07
2023-03-06T05:16:19.346Z,32.07
2023-03-06T05:18:50.657Z,33.00
2023-03-06T05:21:19.265Z,33.00
2023-03-06T05:23:48.356Z,33.20
2023-03-06T05:26:16.928Z,34.43
2023-03-06T05:28:45.528Z,34.93
2023-03-06T05:31:13.928Z,33.20
2023-03-06T05:33:42.297Z,33.63
2023-03-06T05:36:12.382Z,33.37
2023-03-06T05:38:40.779Z,35.03
2023-03-06T05:41:12.743Z,34.37
2023-03-06T05:43:41.151Z,35.37
2023-03-06T05:46:09.951Z,32.73
2023-03-06T05:48:38.647Z,33.87
2023-03-06T05:51:07.243Z,32.43
2023-03-06T05:53:37.012Z,32.57
2023-03-06T05:56:06.528Z,30.70
2023-03-06T05:58:35.234Z,35.33
2023-03-06T06:01:09.995Z,37.47
2023-03-06T06:03:38.593Z,36.33
2023-03-06T06:06:07.477Z,34.87
2023-03-06T06:08:37.326Z,32.63
2023-03-06T06:11:06.613Z,33.20
2023-03-06T06:13:35.007Z,33.47
2023-03-06T06:16:08.070Z,33.27
2023-03-06T06:18:37.317Z,35.43
2023-03-06T06:21:07.721Z,37.70
2023-03-06T06:23:37.719Z,35.40
2023-03-06T06:26:07.707Z,34.97
2023-03-06T06:28:36.343Z,37.77
2023-03-06T06:31:09.141Z,39.13
2023-03-06T06:33:37.582Z,34.97
2023-03-06T06:36:06.268Z,38.17
2023-03-06T06:38:34.735Z,41.40
2023-03-06T06:41:35.576Z,37.37
2023-03-06T06:43:55.487Z,42.03
2023-03-06T06:47:09.587Z,40.13
2023-03-06T06:49:13.521Z,36.57
2023-03-06T06:51:42.376Z,39.13
2023-03-06T06:54:12.036Z,36.57
2023-03-06T06:56:41.829Z,33.13
2023-03-06T06:59:16.403Z,35.70
2023-03-06T07:01:45.448Z,37.23
2023-03-06T07:04:14.792Z,34.80
2023-03-06T07:06:43.404Z,36.27
2023-03-06T07:09:12.108Z,35.20
2023-03-06T07:11:42.216Z,42.87
2023-03-06T07:14:10.634Z,41.57
2023-03-06T07:16:39.052Z,42.33
2023-03-06T07:19:07.490Z,35.50
2023-03-06T07:21:35.998Z,39.40
2023-03-06T07:24:04.760Z,35.33
2023-03-06T07:26:34.873Z,40.00
2023-03-06T07:29:05.811Z,35.07
2023-03-06T07:31:34.378Z,38.97
2023-03-06T07:34:04.924Z,38.13
2023-03-06T07:36:33.952Z,35.77
2023-03-06T07:39:02.710Z,26.73
2023-03-06T07:41:31.181Z,23.93
2023-03-06T07:43:59.852Z,29.50
2023-03-06T07:46:29.743Z,37.97
2023-03-06T07:48:58.286Z,21.67
2023-03-06T07:51:26.757Z,26.33
2023-03-06T07:53:55.131Z,34.93
2023-03-06T07:56:23.515Z,30.57
2023-03-06T07:58:51.954Z,32.53
2023-03-06T08:01:21.301Z,33.03
2023-03-06T08:03:51.119Z,27.23
2023-03-06T08:06:20.554Z,30.63
2023-03-06T08:08:49.424Z,30.20
2023-03-06T08:11:19.116Z,34.10
2023-03-06T08:13:48.834Z,31.10
2023-03-06T08:16:18.372Z,29.10
2023-03-06T08:18:46.822Z,24.87
2023-03-06T08:21:17.472Z,24.40
2023-03-06T08:23:46.478Z,31.97
2023-03-06T08:26:16.712Z,29.60
2023-03-06T08:28:45.392Z,21.40
2023-03-06T08:31:14.731Z,27.27
2023-03-06T08:33:43.182Z,27.97
2023-03-06T08:36:11.685Z,26.63
2023-03-06T08:38:41.460Z,22.30
2023-03-06T08:41:09.877Z,23.90
2023-03-06T08:43:38.469Z,28.77
2023-03-06T08:46:06.944Z,24.10
2023-03-06T08:48:35.402Z,25.07
2023-03-06T08:51:03.893Z,26.53
2023-03-06T08:53:42.735Z,29.73
2023-03-06T08:56:18.385Z,28.73
2023-03-06T08:58:46.837Z,27.40
2023-03-06T09:01:16.373Z,28.27
2023-03-06T09:03:44.834Z,27.73
2023-03-06T09:06:13.259Z,30.33
2023-03-06T09:08:43.221Z,31.90
2023-03-06T09:11:11.811Z,28.53
2023-03-06T09:13:41.656Z,31.97
2023-03-06T09:16:10.679Z,39.43
2023-03-06T09:18:39.462Z,35.47
2023-03-06T09:21:09.213Z,30.80
2023-03-06T09:23:39.478Z,30.57
2023-03-06T09:26:08.475Z,29.70
2023-03-06T09:28:38.890Z,27.83
2023-03-06T09:31:11.010Z,40.17
2023-03-06T09:33:39.648Z,37.90
2023-03-06T09:36:08.732Z,33.40
2023-03-06T09:38:37.149Z,27.90
2023-03-06T09:43:37.233Z,36.37
2023-03-06T09:46:15.374Z,42.33
2023-03-06T09:48:49.019Z,33.23
2023-03-06T09:51:18.290Z,39.80
2023-03-06T09:53:58.492Z,43.30
2023-03-06T09:56:31.176Z,42.10
2023-03-06T09:59:02.550Z,36.60
2023-03-06T10:01:34.954Z,34.13
2023-03-06T10:04:07.358Z,49.00
2023-03-06T10:06:38.945Z,40.33
2023-03-06T10:09:09.285Z,36.73
2023-03-06T10:11:41.066Z,38.47
2023-03-06T10:14:14.309Z,51.17
2023-03-06T10:16:44.163Z,40.90
2023-03-06T10:19:14.431Z,40.50
2023-03-06T10:21:47.670Z,47.97
2023-03-06T10:24:21.932Z,50.57
2023-03-06T10:26:52.063Z,39.93
2023-03-06T10:29:56.393Z,40.50
2023-03-06T10:32:46.155Z,54.33
2023-03-06T10:35:19.810Z,43.13
2023-03-06T10:37:48.538Z,44.27
2023-03-06T10:40:18.655Z,48.70
2023-03-06T10:42:47.254Z,51.37
2023-03-06T10:45:16.523Z,42.97
2023-03-06T10:47:46.694Z,42.87
2023-03-06T10:50:22.430Z,58.70
2023-03-06T10:52:59.970Z,55.07
2023-03-06T10:55:30.410Z,43.73
2023-03-06T10:57:58.939Z,56.33
2023-03-06T11:00:29.264Z,56.80
2023-03-06T11:03:16.315Z,47.80
2023-03-06T11:06:04.315Z,45.17
2023-03-06T11:08:33.046Z,61.30
2023-03-06T11:11:02.438Z,52.03
2023-03-06T11:13:31.787Z,48.97
2023-03-06T11:16:02.406Z,56.77
2023-03-06T11:18:35.039Z,54.77
2023-03-06T11:21:07.288Z,49.37
2023-03-06T11:23:40.082Z,42.70
2023-03-06T11:26:20.713Z,62.23
2023-03-06T11:28:50.480Z,54.47
2023-03-06T11:31:20.336Z,47.37
2023-03-06T11:33:51.661Z,63.67
2023-03-06T11:36:28.170Z,59.17
2023-03-06T11:38:56.857Z,48.93
2023-03-06T11:41:31.519Z,58.77
2023-03-06T11:44:02.800Z,62.43
2023-03-06T11:46:35.047Z,54.03
2023-03-06T11:49:06.958Z,46.97
2023-03-06T11:51:39.628Z,67.73
2023-03-06T11:54:08.057Z,60.50
2023-03-06T11:56:42.904Z,50.13
2023-03-06T11:59:20.791Z,56.37
2023-03-06T12:01:51.913Z,59.93
2023-03-06T12:04:32.265Z,53.70
2023-03-06T12:07:07.540Z,49.87
2023-03-06T12:09:41.430Z,70.10
2023-03-06T12:12:20.306Z,56.33
2023-03-06T12:14:57.368Z,55.20
2023-03-06T12:17:31.724Z,62.77
2023-03-06T12:20:12.298Z,71.47
2023-03-06T12:22:57.515Z,52.53
2023-03-06T12:25:34.857Z,49.33
2023-03-06T12:28:18.110Z,68.87
2023-03-06T12:30:58.950Z,59.77
2023-03-06T12:33:30.768Z,51.17
2023-03-06T12:36:02.300Z,56.80
2023-03-06T12:38:51.644Z,66.10
2023-03-06T12:41:24.144Z,55.47
2023-03-06T12:44:07.350Z,52.90
2023-03-06T12:46:37.761Z,58.77
2023-03-06T12:49:08.064Z,56.80
2023-03-06T12:51:36.618Z,50.90
2023-03-06T12:54:06.603Z,50.13
2023-03-06T12:56:35.378Z,69.50
2023-03-06T12:59:03.960Z,60.50
2023-03-06T13:01:56.469Z,54.83
2023-03-06T13:04:33.395Z,65.63
2023-03-06T13:07:08.968Z,78.67
2023-03-06T13:09:41.992Z,67.70
2023-03-06T13:12:16.407Z,51.63
2023-03-06T13:14:55.255Z,53.60
2023-03-06T13:17:28.320Z,61.00
2023-03-06T13:20:21.263Z,58.60
2023-03-06T13:22:49.903Z,54.07
2023-03-06T13:25:34.206Z,64.13
2023-03-06T13:28:04.979Z,55.40
2023-03-06T13:30:46.830Z,51.93
2023-03-06T13:33:48.685Z,59.90
2023-03-06T13:36:24.979Z,54.57
2023-03-06T13:38:58.395Z,45.77
2023-03-06T13:41:50.605Z,59.43
2023-03-06T13:44:50.892Z,55.93
2023-03-06T13:47:32.289Z,53.77
2023-03-06T13:50:00.955Z,58.63
2023-03-06T13:52:36.852Z,54.80
2023-03-06T13:55:10.178Z,50.77
2023-03-06T13:57:43.515Z,60.37
2023-03-06T14:00:29.969Z,55.73
2023-03-06T14:03:24.022Z,56.70
2023-03-06T14:05:53.628Z,54.73
2023-03-06T14:08:23.647Z,49.47
2023-03-06T14:11:01.358Z,51.63
2023-03-06T14:13:45.262Z,65.13
2023-03-06T14:16:19.802Z,53.13
2023-03-06T14:18:50.772Z,55.43
2023-03-06T14:21:26.769Z,68.27
2023-03-06T14:24:00.667Z,51.40
2023-03-06T14:26:30.628Z,52.17
2023-03-06T14:28:59.869Z,70.50
2023-03-06T14:31:30.362Z,59.27
2023-03-06T14:34:01.059Z,50.73
2023-03-06T14:36:32.528Z,60.07
2023-03-06T14:39:04.273Z,65.37
2023-03-06T14:41:34.137Z,55.87
2023-03-06T14:44:17.789Z,46.47
2023-03-06T14:46:46.721Z,62.03
2023-03-06T14:49:17.184Z,51.43
2023-03-06T14:51:47.016Z,45.90
2023-03-06T14:54:18.293Z,53.60
2023-03-06T14:56:48.495Z,55.00
2023-03-06T14:59:19.483Z,48.27
2023-03-06T15:01:50.438Z,48.67
2023-03-06T15:04:23.769Z,57.47
2023-03-06T15:06:52.627Z,54.73
2023-03-06T15:09:24.372Z,46.63
2023-03-06T15:11:53.803Z,61.77
2023-03-06T15:14:23.770Z,62.40
2023-03-06T15:16:52.354Z,50.90
2023-03-06T15:19:22.723Z,52.53
2023-03-06T15:21:52.285Z,66.90
2023-03-06T15:24:35.120Z,50.40
2023-03-06T15:27:04.436Z,46.03
2023-03-06T15:29:33.231Z,66.90
2023-03-06T15:32:29.623Z,62.50
2023-03-06T15:35:12.881Z,50.03
2023-03-06T15:37:42.676Z,54.67
2023-03-06T15:40:19.094Z,57.37
2023-03-06T15:42:49.979Z,52.33
2023-03-06T15:45:19.953Z,55.77
2023-03-06T15:47:49.076Z,58.50
2023-03-06T15:50:18.490Z,54.27
2023-03-06T15:52:48.908Z,48.60
2023-03-06T15:55:18.410Z,54.60
2023-03-06T15:57:49.988Z,59.47
2023-03-06T16:00:27.783Z,50.97
2023-03-06T16:02:56.718Z,50.67
2023-03-06T16:05:25.392Z,57.17
2023-03-06T16:07:55.155Z,50.67
2023-03-06T16:10:24.380Z,50.23
2023-03-06T16:12:54.036Z,64.10
2023-03-06T16:15:23.381Z,53.93
2023-03-06T16:17:52.078Z,51.80
2023-03-06T16:20:21.588Z,52.40
2023-03-06T16:22:50.772Z,58.13
2023-03-06T16:25:22.043Z,49.40
2023-03-06T16:27:55.424Z,52.30
2023-03-06T16:30:24.988Z,50.07
2023-03-06T16:32:53.561Z,50.87
2023-03-06T16:35:22.016Z,45.90
2023-03-06T16:37:50.656Z,51.30
2023-03-06T16:40:22.197Z,49.97
2023-03-06T16:42:51.195Z,46.90
2023-03-06T16:45:21.130Z,44.07
2023-03-06T16:47:49.983Z,48.33
2023-03-06T16:50:22.934Z,46.47
2023-03-06T16:52:51.431Z,43.30
2023-03-06T16:55:21.506Z,45.97
2023-03-06T16:57:50.005Z,51.97
2023-03-06T17:00:19.687Z,42.20
2023-03-06T17:02:49.880Z,42.90
2023-03-06T17:05:18.396Z,46.40
2023-03-06T17:07:46.833Z,45.80
2023-03-06T17:10:16.684Z,42.03
2023-03-06T17:12:46.633Z,42.03
2023-03-06T17:15:15.074Z,44.23
2023-03-06T17:17:43.483Z,40.90
2023-03-06T17:20:12.717Z,43.43
2023-03-06T17:22:41.628Z,45.30
2023-03-06T17:25:10.777Z,44.47
2023-03-06T17:27:39.537Z,42.30
2023-03-06T17:30:10.239Z,42.73
2023-03-06T17:32:40.873Z,40.93
2023-03-06T17:35:10.147Z,42.23
2023-03-06T17:37:38.649Z,39.77
2023-03-06T17:40:09.449Z,48.60
2023-03-06T17:42:37.955Z,49.80
2023-03-06T17:45:09.204Z,52.33
2023-03-06T17:47:39.143Z,46.23
2023-03-06T17:50:07.779Z,41.20
2023-03-06T17:52:37.389Z,43.63
2023-03-06T17:55:06.050Z,37.33
2023-03-06T17:57:34.462Z,31.67
2023-03-06T18:00:02.860Z,31.97
2023-03-06T18:02:31.261Z,27.40
2023-03-06T18:05:01.109Z,28.23
2023-03-06T18:07:29.548Z,26.40
2023-03-06T18:09:58.047Z,25.20
2023-03-06T18:12:26.520Z,26.63
2023-03-06T18:14:55.027Z,20.87
2023-03-06T18:17:23.639Z,21.07
2023-03-06T18:19:52.943Z,21.97
2023-03-06T18:22:22.706Z,17.47
2023-03-06T18:24:51.502Z,17.87
2023-03-06T18:27:20.800Z,18.27
2023-03-06T18:29:49.604Z,16.47
2023-03-06T18:32:18.028Z,15.70
2023-03-06T18:34:46.520Z,14.70
2023-03-06T18:37:14.928Z,13.70
2023-03-06T18:39:44.782Z,14.50
2023-03-06T18:42:13.170Z,13.97
2023-03-06T18:44:41.668Z,18.40
2023-03-06T18:47:10.147Z,14.67
2023-03-06T18:49:40.580Z,16.23
2023-03-06T18:52:09.823Z,14.40
2023-03-06T18:54:38.274Z,14.93
2023-03-06T18:57:08.144Z,14.60
2023-03-06T18:59:36.566Z,14.93
2023-03-06T19:02:05.152Z,13.23
2023-03-06T19:04:33.576Z,12.03
2023-03-06T19:07:02.037Z,14.50
2023-03-06T19:09:30.498Z,13.67
2023-03-06T19:11:59.638Z,13.83
2023-03-06T19:14:30.636Z,14.70
2023-03-06T19:16:59.024Z,15.27
2023-03-06T19:19:29.336Z,13.43
2023-03-06T19:21:59.527Z,13.23
2023-03-06T19:24:27.987Z,12.67
2023-03-06T19:26:56.533Z,13.87
2023-03-06T19:29:25.009Z,12.37
2023-03-06T19:31:57.251Z,13.33
2023-03-06T19:34:25.764Z,16.77
2023-03-06T19:36:54.147Z,14.07
2023-03-06T19:39:22.546Z,14.47
2023-03-06T19:41:50.965Z,13.00
2023-03-06T19:44:19.341Z,15.33
2023-03-06T19:46:47.688Z,14.30
2023-03-06T19:49:18.260Z,14.03
2023-03-06T19:51:46.749Z,15.83
2023-03-06T19:54:15.370Z,13.40
2023-03-06T19:56:43.820Z,12.27
2023-03-06T19:59:12.239Z,15.00
2023-03-06T20:01:40.695Z,13.97
2023-03-06T20:04:09.181Z,13.67
2023-03-06T20:06:39.139Z,14.20
2023-03-06T20:09:08.900Z,13.87
2023-03-06T20:11:37.308Z,17.43
2023-03-06T20:14:06.324Z,13.67
2023-03-06T20:16:35.008Z,14.93
2023-03-06T20:19:03.490Z,15.23
2023-03-06T20:21:32.975Z,15.93
2023-03-06T20:24:02.843Z,19.13
2023-03-06T20:26:34.131Z,18.07
2023-03-06T20:29:02.623Z,14.93
2023-03-06T20:31:31.895Z,14.83
2023-03-06T20:34:00.739Z,19.60
2023-03-06T20:36:30.130Z,17.70
2023-03-06T20:39:00.571Z,16.40
2023-03-06T20:41:31.381Z,16.13
2023-03-06T20:43:59.972Z,15.47
2023-03-06T20:46:28.457Z,13.63
2023-03-06T20:48:58.187Z,13.73
2023-03-06T20:51:28.557Z,12.23
2023-03-06T20:53:57.776Z,13.50
2023-03-06T20:56:27.036Z,16.97
2023-03-06T20:58:57.149Z,12.27
2023-03-06T21:01:26.254Z,12.83
2023-03-06T21:03:55.204Z,16.17
2023-03-06T21:06:23.601Z,11.47
2023-03-06T21:08:51.992Z,13.57
2023-03-06T21:11:20.909Z,12.73
2023-03-06T21:13:49.491Z,11.27
2023-03-06T21:16:20.823Z,15.27
2023-03-06T21:18:49.484Z,14.80
2023-03-06T21:21:18.559Z,13.40
2023-03-06T21:23:47.248Z,13.03
2023-03-06T21:26:16.065Z,9.67
2023-03-06T21:28:44.578Z,12.90
2023-03-06T21:31:13.334Z,11.47
2023-03-06T21:33:43.711Z,12.70
2023-03-06T21:36:12.319Z,13.07
2023-03-06T21:38:40.977Z,10.27
2023-03-06T21:41:10.470Z,15.27
2023-03-06T21:43:38.847Z,17.17
2023-03-06T21:46:07.360Z,15.37
2023-03-06T21:48:35.909Z,12.00
2023-03-06T21:51:09.683Z,13.67
2023-03-06T21:53:38.526Z,15.90
2023-03-06T21:56:07.228Z,14.43
2023-03-06T21:58:35.616Z,16.93
2023-03-06T22:01:04.122Z,22.23
2023-03-06T22:03:32.542Z,20.10
2023-03-06T22:06:10.138Z,20.07
2023-03-06T22:08:38.513Z,19.57
2023-03-06T22:11:07.682Z,18.83
2023-03-06T22:13:36.151Z,19.47
2023-03-06T22:16:04.797Z,19.03
2023-03-06T22:18:33.239Z,20.07
2023-03-06T22:21:01.829Z,17.57
2023-03-06T22:23:31.593Z,18.93
2023-03-06T22:26:02.939Z,19.67
2023-03-06T22:28:31.621Z,19.40
2023-03-06T22:31:04.704Z,17.63
2023-03-06T22:33:33.076Z,20.77
2023-03-06T22:36:06.436Z,18.70
2023-03-06T22:38:36.870Z,19.17
2023-03-06T22:41:05.687Z,17.17
2023-03-06T22:43:34.181Z,19.10
2023-03-06T22:46:03.444Z,17.60
2023-03-06T22:48:31.919Z,18.50
2023-03-06T22:51:03.575Z,21.87
2023-03-06T22:53:32.098Z,19.40
2023-03-06T22:56:01.956Z,21.20
2023-03-06T22:58:34.359Z,19.57
2023-03-06T23:01:05.680Z,20.97
2023-03-06T23:03:34.108Z,22.13
2023-03-06T23:06:02.560Z,22.20
2023-03-06T23:08:30.938Z,20.33
2023-03-06T23:10:59.323Z,22.83
2023-03-06T23:13:29.153Z,23.03
2023-03-06T23:15:57.610Z,21.47
2023-03-06T23:18:25.996Z,24.13
2023-03-06T23:20:54.602Z,22.87
2023-03-06T23:23:23.248Z,23.70
2023-03-06T23:25:51.838Z,25.07
2023-03-06T23:28:20.646Z,25.80
2023-03-06T23:30:50.442Z,22.57
2023-03-06T23:33:18.850Z,22.80
2023-03-06T23:35:47.355Z,25.40
2023-03-06T23:38:16.070Z,23.13
2023-03-06T23:40:44.522Z,23.77
2023-03-06T23:43:13.140Z,22.60
2023-03-06T23:45:41.537Z,23.40
2023-03-06T23:48:12.663Z,23.73
2023-03-06T23:50:41.368Z,24.90
2023-03-06T23:53:09.756Z,23.40
2023-03-06T23:55:38.138Z,28.50
2023-03-06T23:58:06.527Z,28.07
